Time;durP1;ratioP1;P1;durP2;ratioP2;P2;SDS_P1;SDS_P2;PMS_P1;PMS_P2;Temp;Humidity;BMP_temperature;BMP_pressure;BME280_temperature;BME280_humidity;BME280_pressure;Samples;Min_cycle;Max_cycle;Signal;HPM_P1;HPM_P2
2022/12/18 00:02:07;;;;;;;95.03;31.08;;;-3.70;99.90;;;;;;5073401;28;20044;-79
2022/12/18 00:04:32;;;;;;;85.43;28.85;;;-3.70;99.90;;;;;;5071923;28;20033;-79
2022/12/18 00:06:58;;;;;;;82.25;29.00;;;-3.10;99.90;;;;;;5073428;28;20087;-80
2022/12/18 00:09:24;;;;;;;93.17;33.47;;;-3.70;99.90;;;;;;5073504;28;20055;-79
2022/12/18 00:11:50;;;;;;;89.53;31.23;;;-3.80;99.90;;;;;;5073198;28;20565;-79
2022/12/18 00:14:16;;;;;;;92.72;29.40;;;-3.80;99.90;;;;;;5073211;28;20051;-79
2022/12/18 00:16:44;;;;;;;92.17;29.03;;;-3.80;99.90;;;;;;5073119;28;20062;-79
2022/12/18 00:19:10;;;;;;;87.97;30.65;;;-3.90;99.90;;;;;;5072970;28;20052;-79
2022/12/18 00:21:36;;;;;;;80.65;29.58;;;-4.40;99.90;;;;;;5073089;28;20434;-79
2022/12/18 00:24:02;;;;;;;89.53;30.37;;;-3.90;99.90;;;;;;5073433;28;20091;-79
2022/12/18 00:26:32;;;;;;;88.50;31.52;;;-2.60;99.90;;;;;;5072996;28;20044;-79
2022/12/18 00:29:06;;;;;;;76.70;28.15;;;-4.00;99.90;;;;;;5073070;28;20045;-79
2022/12/18 00:31:32;;;;;;;85.93;28.60;;;-4.00;99.90;;;;;;5073225;28;20055;-79
2022/12/18 00:33:58;;;;;;;78.43;29.60;;;-4.20;99.90;;;;;;5072919;28;20040;-78
2022/12/18 00:36:26;;;;;;;87.60;29.42;;;-4.10;99.90;;;;;;5071789;28;20283;-79
2022/12/18 00:38:54;;;;;;;86.13;31.80;;;-4.10;99.90;;;;;;5073254;28;20098;-79
2022/12/18 00:44:06;;;;;;;83.90;30.08;;;-4.20;99.90;;;;;;5073298;28;20084;-79
2022/12/18 00:46:32;;;;;;;84.78;29.25;;;-4.30;99.90;;;;;;5071686;28;20136;-79
2022/12/18 00:48:58;;;;;;;77.40;28.17;;;-4.70;99.90;;;;;;5071767;28;20185;-79
2022/12/18 00:51:24;;;;;;;75.80;29.73;;;-4.30;99.90;;;;;;5071759;28;20522;-79
2022/12/18 00:53:50;;;;;;;75.55;28.80;;;-4.30;99.90;;;;;;5072742;28;20174;-79
2022/12/18 00:56:16;;;;;;;83.07;28.90;;;-3.40;99.90;;;;;;5072725;28;20076;-78
2022/12/18 00:58:42;;;;;;;70.80;27.35;;;-4.50;99.90;;;;;;5071367;28;20458;-79
2022/12/18 01:01:08;;;;;;;76.53;27.60;;;-4.40;99.90;;;;;;5072841;28;20048;-79
2022/12/18 01:03:33;;;;;;;77.95;27.52;;;-4.50;99.90;;;;;;5076314;28;20389;-79
2022/12/18 01:05:59;;;;;;;70.70;26.70;;;-4.90;99.90;;;;;;5076242;28;20056;-79
2022/12/18 01:08:25;;;;;;;75.43;26.37;;;-4.70;99.90;;;;;;5074909;28;20044;-79
2022/12/18 01:10:51;;;;;;;80.50;25.23;;;-4.70;99.90;;;;;;5076184;28;20041;-79
2022/12/18 01:13:16;;;;;;;73.53;27.07;;;-4.80;99.90;;;;;;5076326;28;20048;-79
2022/12/18 01:15:51;;;;;;;71.20;26.07;;;-4.80;99.90;;;;;;5074810;28;20037;-79
2022/12/18 01:18:17;;;;;;;81.40;28.40;;;-4.90;99.90;;;;;;5074663;28;20500;-80
2022/12/18 01:20:42;;;;;;;71.63;26.85;;;-4.90;99.90;;;;;;5075996;28;20091;-79
2022/12/18 01:23:10;;;;;;;72.30;28.25;;;-5.20;99.90;;;;;;5075863;28;20051;-80
2022/12/18 01:25:36;;;;;;;84.10;28.90;;;-5.00;99.90;;;;;;5075850;28;20504;-80
2022/12/18 01:28:02;;;;;;;92.60;30.40;;;-5.00;99.90;;;;;;5057949;28;20041;-80
2022/12/18 01:30:28;;;;;;;92.10;29.17;;;-5.00;99.90;;;;;;5075820;28;20045;-80
2022/12/18 01:32:54;;;;;;;101.13;30.37;;;-5.00;99.90;;;;;;5075823;28;20052;-80
2022/12/18 01:35:19;;;;;;;89.30;30.00;;;-5.00;99.90;;;;;;5075669;28;20056;-80
2022/12/18 01:37:45;;;;;;;100.63;31.90;;;-5.10;99.90;;;;;;5074162;28;20493;-80
2022/12/18 01:40:11;;;;;;;93.73;29.60;;;-5.70;99.90;;;;;;5076182;28;20123;-80
2022/12/18 01:42:37;;;;;;;94.13;30.73;;;-5.20;99.90;;;;;;5075545;28;20480;-80
2022/12/18 01:45:12;;;;;;;79.85;29.20;;;-5.20;99.90;;;;;;5075896;28;20044;-80
2022/12/18 01:47:59;;;;;;;86.55;31.05;;;-5.20;99.90;;;;;;5074398;28;20044;-80
2022/12/18 01:50:27;;;;;;;86.90;30.02;;;-5.30;99.90;;;;;;5075753;28;20056;-80
2022/12/18 01:52:57;;;;;;;84.78;28.15;;;-5.40;99.90;;;;;;5074958;28;20127;-80
2022/12/18 01:55:25;;;;;;;69.60;26.50;;;-5.50;99.90;;;;;;5074089;28;20049;-79
2022/12/18 01:57:54;;;;;;;86.22;28.63;;;-5.40;99.90;;;;;;5075163;28;20040;-79
2022/12/18 02:00:22;;;;;;;73.75;26.88;;;-5.90;99.90;;;;;;5075140;28;20048;-79
2022/12/18 02:02:48;;;;;;;71.80;26.90;;;-5.50;99.90;;;;;;5074138;28;20034;-79
2022/12/18 02:05:18;;;;;;;67.00;24.90;;;-5.80;99.90;;;;;;5075214;28;20432;-80
2022/12/18 02:08:07;;;;;;;76.40;26.27;;;-3.80;99.90;;;;;;5073704;28;20044;-80
2022/12/18 02:10:50;;;;;;;62.13;24.30;;;-5.60;99.90;;;;;;5073873;28;20384;-80
2022/12/18 02:13:55;;;;;;;59.28;24.60;;;-5.60;99.90;;;;;;5058250;28;20476;-80
2022/12/18 02:16:43;;;;;;;56.65;23.73;;;-5.60;99.90;;;;;;5073768;28;20056;-80
2022/12/18 02:19:37;;;;;;;54.88;24.95;;;-5.70;99.90;;;;;;5074876;28;20048;-80
2022/12/18 02:22:31;;;;;;;58.90;23.45;;;-6.10;99.90;;;;;;5074698;28;20056;-80
2022/12/18 02:25:24;;;;;;;55.75;22.98;;;-5.80;99.90;;;;;;5074730;28;20060;-80
2022/12/18 02:27:51;;;;;;;50.58;22.13;;;-5.80;99.90;;;;;;5074165;28;20067;-79
2022/12/18 02:30:18;;;;;;;59.13;23.58;;;-6.50;99.90;;;;;;5073004;28;20101;-79
2022/12/18 02:32:49;;;;;;;60.70;22.25;;;-5.10;99.90;;;;;;5073332;28;20044;-79
2022/12/18 02:35:23;;;;;;;51.28;20.63;;;-6.50;99.90;;;;;;5074517;28;20040;-79
2022/12/18 02:37:54;;;;;;;50.05;21.17;;;-5.90;99.90;;;;;;5074454;28;20093;-79
2022/12/18 02:40:23;;;;;;;57.08;22.05;;;-6.20;99.90;;;;;;5074431;28;20040;-79
2022/12/18 02:42:49;;;;;;;51.97;20.98;;;-6.90;99.90;;;;;;5074417;28;20048;-80
2022/12/18 02:45:15;;;;;;;46.63;19.50;;;-6.20;99.90;;;;;;5074543;28;20481;-79
2022/12/18 02:47:43;;;;;;;61.27;22.47;;;-6.40;99.90;;;;;;5073023;28;20052;-79
2022/12/18 02:50:11;;;;;;;54.25;19.35;;;-6.10;99.90;;;;;;5073173;28;20045;-79
2022/12/18 02:52:58;;;;;;;50.95;20.38;;;-6.10;99.90;;;;;;5072880;28;20048;-79
2022/12/18 02:55:42;;;;;;;51.10;20.13;;;-6.10;99.90;;;;;;5074117;28;20044;-79
2022/12/18 02:58:21;;;;;;;53.78;20.17;;;-6.10;99.90;;;;;;5074045;28;20037;-79
2022/12/18 03:01:15;;;;;;;48.45;20.38;;;-5.40;99.90;;;;;;5072901;28;20044;-79
2022/12/18 03:03:59;;;;;;;56.13;21.67;;;-7.50;99.90;;;;;;5072314;28;20056;-80
2022/12/18 03:06:30;;;;;;;52.05;20.58;;;-6.20;99.90;;;;;;5073994;28;20058;-80
2022/12/18 03:09:07;;;;;;;59.97;22.25;;;-6.30;99.90;;;;;;5073006;28;20051;-79
2022/12/18 03:14:23;;;;;;;51.97;21.38;;;-5.40;99.90;;;;;;5059015;28;20048;-80
2022/12/18 03:16:56;;;;;;;49.55;20.15;;;-5.70;99.90;;;;;;5056145;28;20400;-79
2022/12/18 03:19:27;;;;;;;48.38;19.92;;;-6.30;99.90;;;;;;5074016;28;20044;-80
2022/12/18 03:21:57;;;;;;;52.90;21.05;;;-6.30;99.90;;;;;;5073868;28;20054;-80
2022/12/18 03:24:26;;;;;;;47.83;20.38;;;-6.40;99.90;;;;;;5072654;28;20486;-79
2022/12/18 03:26:55;;;;;;;55.58;19.45;;;-6.50;99.90;;;;;;5055870;28;20036;-79
2022/12/18 03:29:33;;;;;;;43.88;18.75;;;-6.30;99.90;;;;;;5072063;28;20044;-80
2022/12/18 03:32:01;;;;;;;;;;;-6.30;99.90;;;;;;5073163;28;20517;-80
2022/12/18 03:34:31;;;;;;;45.95;19.95;;;-6.60;99.90;;;;;;5073453;28;20482;-80
2022/12/18 03:36:57;;;;;;;47.30;19.23;;;-6.60;99.90;;;;;;5072311;28;20036;-79
2022/12/18 03:39:24;;;;;;;45.45;20.50;;;-6.50;99.90;;;;;;5072675;28;20056;-79
2022/12/18 03:41:58;;;;;;;;;;;-6.50;99.90;;;;;;5073894;28;20457;-80
2022/12/18 03:44:31;;;;;;;44.35;18.85;;;-6.40;99.90;;;;;;5073751;28;19924;-79
2022/12/18 03:47:09;;;;;;;43.20;18.20;;;-6.40;99.90;;;;;;5073374;28;20036;-80
2022/12/18 03:50:08;;;;;;;44.30;17.58;;;-6.50;99.90;;;;;;5073517;28;20048;-79
2022/12/18 03:52:57;;;;;;;39.40;18.13;;;-6.50;99.90;;;;;;5073193;28;20514;-79
2022/12/18 03:55:25;;;;;;;42.83;18.35;;;-6.90;99.90;;;;;;5052553;28;20071;-79
2022/12/18 03:57:53;;;;;;;53.15;19.73;;;-5.60;99.90;;;;;;5073263;28;20053;-79
2022/12/18 04:00:20;;;;;;;41.58;18.88;;;-6.60;99.90;;;;;;5073235;28;20045;-79
2022/12/18 04:02:53;;;;;;;45.13;18.50;;;-6.50;99.90;;;;;;5073466;28;20045;-79
2022/12/18 04:05:20;;;;;;;47.28;18.10;;;-6.70;99.90;;;;;;5073216;28;20408;-79
2022/12/18 04:07:47;;;;;;;41.70;17.95;;;-6.60;99.90;;;;;;5071885;28;20048;-79
2022/12/18 04:10:17;;;;;;;41.63;18.20;;;-6.60;99.90;;;;;;5073086;28;20045;-80
2022/12/18 04:12:43;;;;;;;46.15;19.55;;;-6.70;99.90;;;;;;5072125;28;20047;-80
2022/12/18 04:15:10;;;;;;;41.90;17.37;;;-6.80;99.90;;;;;;5073657;28;20041;-79
2022/12/18 04:17:35;;;;;;;51.35;18.35;;;-6.50;99.90;;;;;;5072214;28;20090;-80
2022/12/18 04:20:01;;;;;;;40.67;17.57;;;-6.80;99.90;;;;;;5073057;28;20037;-80
2022/12/18 04:22:27;;;;;;;32.83;16.80;;;-6.70;99.90;;;;;;5071727;28;20040;-80
2022/12/18 04:24:52;;;;;;;33.07;16.00;;;-6.80;99.90;;;;;;5071465;28;20090;-80
2022/12/18 04:27:18;;;;;;;41.60;16.50;;;-7.10;99.90;;;;;;5072963;28;20041;-80
2022/12/18 04:29:44;;;;;;;30.77;15.00;;;-6.60;99.90;;;;;;5072227;28;20044;-79
2022/12/18 04:32:10;;;;;;;43.17;16.67;;;-6.80;99.90;;;;;;5073018;28;20048;-80
2022/12/18 04:34:35;;;;;;;32.17;15.57;;;-6.80;99.90;;;;;;5055373;28;20087;-80
2022/12/18 04:37:01;;;;;;;35.97;16.47;;;-6.90;99.90;;;;;;5076063;28;20044;-80
2022/12/18 04:39:26;;;;;;;36.53;16.07;;;-6.70;99.90;;;;;;5076544;28;20053;-80
2022/12/18 04:41:52;;;;;;;37.43;16.07;;;-6.90;99.90;;;;;;5075563;28;20041;-80
2022/12/18 04:44:18;;;;;;;33.80;15.97;;;-7.00;99.90;;;;;;5076670;28;20048;-80
2022/12/18 04:46:43;;;;;;;42.03;16.87;;;-6.80;99.90;;;;;;5076570;28;20036;-80
2022/12/18 04:49:10;;;;;;;36.67;16.57;;;-6.90;99.90;;;;;;5076673;28;20469;-80
2022/12/18 04:51:36;;;;;;;;;;;-6.60;99.90;;;;;;5076956;28;20404;-80
2022/12/18 04:54:02;;;;;;;40.80;15.65;;;-6.70;99.90;;;;;;5076388;28;19924;-80
2022/12/18 04:56:27;;;;;;;29.67;14.70;;;-6.70;99.90;;;;;;5075269;28;20492;-80
2022/12/18 04:58:53;;;;;;;40.97;17.00;;;-6.80;99.90;;;;;;5075384;28;20123;-80
2022/12/18 05:01:19;;;;;;;34.33;15.17;;;-6.70;99.90;;;;;;5076122;28;20477;-80
2022/12/18 05:03:44;;;;;;;33.23;15.67;;;-6.80;99.90;;;;;;5076277;28;20040;-80
2022/12/18 05:06:10;;;;;;;33.20;14.90;;;-7.00;99.90;;;;;;5076056;28;20056;-80
2022/12/18 05:08:36;;;;;;;38.30;15.93;;;-7.10;99.90;;;;;;5074789;28;20044;-80
2022/12/18 05:11:04;;;;;;;32.30;15.63;;;-6.80;99.90;;;;;;5076069;28;20052;-80
2022/12/18 05:13:30;;;;;;;34.10;15.85;;;-6.70;99.90;;;;;;5059077;28;20123;-79
2022/12/18 05:15:56;;;;;;;34.53;16.20;;;-7.30;99.90;;;;;;5075972;28;20082;-80
2022/12/18 05:18:23;;;;;;;30.67;14.77;;;-7.20;99.90;;;;;;5076242;28;20052;-79
2022/12/18 05:20:50;;;;;;;32.75;15.55;;;-7.30;99.90;;;;;;5075008;28;20052;-79
2022/12/18 05:23:16;;;;;;;34.22;15.68;;;-6.90;99.90;;;;;;5074612;28;20127;-80
2022/12/18 05:25:42;;;;;;;33.20;15.13;;;-7.20;99.90;;;;;;5075893;28;20234;-79
2022/12/18 05:28:07;;;;;;;36.23;15.47;;;-7.10;99.90;;;;;;5074508;28;20129;-79
2022/12/18 05:30:33;;;;;;;35.47;15.37;;;-7.10;99.90;;;;;;5058183;28;20048;-79
2022/12/18 05:32:59;;;;;;;39.07;15.97;;;-5.30;99.90;;;;;;5075768;28;20049;-79
2022/12/18 05:35:25;;;;;;;35.03;16.90;;;-7.10;99.90;;;;;;5075730;28;20040;-80
2022/12/18 05:37:50;;;;;;;34.63;14.43;;;-7.20;99.90;;;;;;5057580;28;20036;-80
2022/12/18 05:40:16;;;;;;;34.50;14.57;;;-7.40;99.90;;;;;;5074360;28;20049;-79
2022/12/18 05:42:41;;;;;;;33.27;16.00;;;-7.10;99.90;;;;;;5074589;28;20465;-80
2022/12/18 05:45:07;;;;;;;36.27;16.33;;;-7.50;99.90;;;;;;5057744;28;20492;-80
2022/12/18 05:47:33;;;;;;;30.77;14.87;;;-7.00;99.90;;;;;;5074618;28;20052;-80
2022/12/18 05:49:59;;;;;;;36.15;15.18;;;-7.20;99.90;;;;;;5075421;28;20135;-80
2022/12/18 05:52:25;;;;;;;31.77;14.93;;;-7.40;99.90;;;;;;5075425;28;20468;-80
2022/12/18 05:54:50;;;;;;;30.47;14.57;;;-7.30;99.90;;;;;;5075316;28;20049;-80
2022/12/18 05:57:16;;;;;;;34.73;15.67;;;-7.40;99.90;;;;;;5075385;28;20055;-79
2022/12/18 05:59:41;;;;;;;33.90;15.57;;;-7.20;99.90;;;;;;5075233;28;20551;-79
2022/12/18 06:02:07;;;;;;;30.73;14.63;;;-7.70;99.90;;;;;;5074088;28;20052;-80
2022/12/18 06:04:33;;;;;;;34.47;14.37;;;-7.20;99.90;;;;;;5075302;28;20108;-79
2022/12/18 06:06:58;;;;;;;30.70;15.50;;;-7.30;99.90;;;;;;5074873;28;20037;-80
2022/12/18 06:09:24;;;;;;;34.50;15.13;;;-7.40;99.90;;;;;;5074781;28;20119;-79
2022/12/18 06:11:52;;;;;;;27.27;13.80;;;-7.30;99.90;;;;;;5074954;28;20048;-79
2022/12/18 06:14:18;;;;;;;30.98;14.50;;;-7.30;99.90;;;;;;5074622;28;20039;-79
2022/12/18 06:16:43;;;;;;;32.13;15.43;;;-6.30;99.90;;;;;;5074902;28;20048;-80
2022/12/18 06:19:16;;;;;;;28.20;13.83;;;-7.40;99.90;;;;;;5074894;28;20085;-80
2022/12/18 06:21:42;;;;;;;28.85;14.73;;;-7.40;99.90;;;;;;5074726;28;20037;-79
2022/12/18 06:24:07;;;;;;;28.20;13.43;;;-7.80;99.90;;;;;;5074440;28;20444;-79
2022/12/18 06:26:33;;;;;;;30.70;13.93;;;-7.70;99.90;;;;;;5074558;28;20036;-80
2022/12/18 06:28:59;;;;;;;29.20;14.80;;;-7.60;99.90;;;;;;5074423;28;20408;-79
2022/12/18 06:31:25;;;;;;;34.90;14.73;;;-7.60;99.90;;;;;;5075057;28;20076;-80
2022/12/18 06:33:51;;;;;;;28.98;14.82;;;-7.30;99.90;;;;;;5074539;28;20047;-79
2022/12/18 06:36:17;;;;;;;29.57;13.73;;;-7.30;99.90;;;;;;5074511;28;20041;-79
2022/12/18 06:38:43;;;;;;;25.03;13.27;;;-7.40;99.90;;;;;;5074353;28;20044;-80
2022/12/18 06:41:18;;;;;;;31.20;13.52;;;-7.50;99.90;;;;;;5074358;28;20071;-80
2022/12/18 06:43:44;;;;;;;26.17;13.02;;;-7.40;99.90;;;;;;5074320;28;20050;-80
2022/12/18 06:46:10;;;;;;;32.47;14.03;;;-7.40;99.90;;;;;;5074206;28;20040;-80
2022/12/18 06:48:36;;;;;;;26.20;13.40;;;-7.80;99.90;;;;;;5073153;28;20047;-80
2022/12/18 06:51:03;;;;;;;34.40;12.83;;;-7.40;99.90;;;;;;5073303;28;20048;-78
2022/12/18 06:53:29;;;;;;;27.42;14.07;;;-7.40;99.90;;;;;;5074072;28;20040;-79
2022/12/18 06:56:06;;;;;;;30.13;14.70;;;-7.60;99.90;;;;;;5074295;28;20120;-82
2022/12/18 06:58:32;;;;;;;;;;;-7.40;99.90;;;;;;5073626;28;20036;-77
2022/12/18 07:01:06;;;;;;;26.35;14.15;;;-7.60;99.90;;;;;;5074058;28;20012;-79
2022/12/18 07:03:32;;;;;;;28.73;14.20;;;-7.20;99.90;;;;;;5074059;28;20123;-79
2022/12/18 07:05:58;;;;;;;29.80;14.80;;;-7.60;99.90;;;;;;5073792;28;20076;-81
2022/12/18 07:08:23;;;;;;;25.50;13.93;;;-7.50;99.90;;;;;;5073964;28;20493;-76
2022/12/18 07:10:49;;;;;;;28.27;15.17;;;-7.50;99.90;;;;;;5073923;28;20048;-77
2022/12/18 07:13:16;;;;;;;28.03;13.77;;;-7.50;99.90;;;;;;5073869;28;20093;-76
2022/12/18 07:15:42;;;;;;;;;;;-7.90;99.90;;;;;;5074168;28;20111;-77
2022/12/18 07:18:07;;;;;;;30.60;14.88;;;-7.40;99.90;;;;;;5073831;28;20054;-78
2022/12/18 07:20:33;;;;;;;29.53;16.30;;;-7.50;99.90;;;;;;5072508;28;20392;-79
2022/12/18 07:23:01;;;;;;;27.23;15.13;;;-7.60;99.90;;;;;;5073733;28;20048;-79
2022/12/18 07:25:26;;;;;;;25.27;13.50;;;-7.60;99.90;;;;;;5072417;28;20504;-78
2022/12/18 07:27:54;;;;;;;27.80;13.38;;;-7.50;99.90;;;;;;5073675;28;20441;-78
2022/12/18 07:30:19;;;;;;;32.13;15.23;;;-7.60;99.90;;;;;;5072960;28;20083;-78
2022/12/18 07:32:45;;;;;;;28.60;16.23;;;-7.50;99.90;;;;;;5073677;28;20080;-80
2022/12/18 07:35:10;;;;;;;39.37;18.80;;;-7.60;99.90;;;;;;5073626;28;20083;-79
2022/12/18 07:37:36;;;;;;;35.17;17.43;;;-7.50;99.90;;;;;;5073444;28;20044;-78
2022/12/18 07:40:02;;;;;;;32.00;15.90;;;-7.60;99.90;;;;;;5073445;28;20433;-78
2022/12/18 07:42:30;;;;;;;25.07;13.73;;;-7.50;99.90;;;;;;5073499;28;20080;-79
2022/12/18 07:44:57;;;;;;;27.60;13.30;;;-7.50;99.90;;;;;;5073486;28;20043;-73
2022/12/18 07:47:22;;;;;;;26.95;13.70;;;-7.50;99.90;;;;;;5073353;28;20091;-79
2022/12/18 07:49:48;;;;;;;27.00;12.63;;;-7.30;99.90;;;;;;5073369;28;20488;-77
2022/12/18 07:52:14;;;;;;;23.50;12.40;;;-7.60;99.90;;;;;;5073531;28;20048;-78
2022/12/18 07:54:40;;;;;;;21.43;12.13;;;-7.50;99.90;;;;;;5073420;28;20063;-78
2022/12/18 07:57:06;;;;;;;22.27;12.35;;;-7.20;99.90;;;;;;5073355;28;20051;-78
2022/12/18 07:59:32;;;;;;;23.98;12.77;;;-7.10;99.90;;;;;;5073134;28;20044;-79
2022/12/18 08:01:58;;;;;;;21.90;12.00;;;-6.40;99.90;;;;;;5073416;28;20051;-78
2022/12/18 08:04:24;;;;;;;22.83;10.70;;;-6.90;99.90;;;;;;5073061;28;20497;-76
2022/12/18 08:06:50;;;;;;;20.75;11.80;;;-6.80;99.90;;;;;;5073160;28;20147;-77
2022/12/18 08:09:15;;;;;;;25.37;12.07;;;-6.90;99.90;;;;;;5073203;28;20139;-76
2022/12/18 08:11:41;;;;;;;17.90;11.27;;;-6.80;99.90;;;;;;5076032;28;20045;-79
2022/12/18 08:14:07;;;;;;;19.50;11.67;;;-6.70;99.90;;;;;;5077366;28;20106;-78
2022/12/18 08:16:32;;;;;;;23.60;11.87;;;-6.80;99.90;;;;;;5077353;28;20047;-79
2022/12/18 08:18:58;;;;;;;17.30;10.40;;;-6.60;99.90;;;;;;5077204;28;20102;-78
2022/12/18 08:21:27;;;;;;;21.10;11.07;;;-6.60;99.90;;;;;;5077246;28;20045;-81
2022/12/18 08:23:55;;;;;;;22.98;10.88;;;-6.60;99.90;;;;;;5076736;28;20060;-77
2022/12/18 08:26:22;;;;;;;17.10;10.80;;;-6.60;99.90;;;;;;5077339;28;20128;-78
2022/12/18 08:28:49;;;;;;;23.88;10.35;;;-6.50;99.90;;;;;;5076974;28;20503;-83
2022/12/18 08:31:14;;;;;;;15.65;9.93;;;-6.30;99.90;;;;;;5077036;28;20222;-81
2022/12/18 08:33:41;;;;;;;20.77;10.10;;;-6.00;99.90;;;;;;5076768;28;20094;-79
2022/12/18 08:36:08;;;;;;;17.77;10.45;;;-6.20;99.90;;;;;;5074899;28;20059;-79
2022/12/18 08:38:33;;;;;;;19.98;11.48;;;-6.10;99.90;;;;;;5075143;28;20040;-79
2022/12/18 08:41:04;;;;;;;15.27;9.03;;;-6.00;99.90;;;;;;5076871;28;20606;-77
2022/12/18 08:46:15;;;;;;;20.85;10.93;;;-5.90;99.90;;;;;;5076565;28;20045;-77
2022/12/18 08:48:41;;;;;;;;;;;-5.80;99.90;;;;;;5076684;28;20468;-77
2022/12/18 08:51:06;;;;;;;18.90;9.60;;;-5.80;99.90;;;;;;5076564;28;19921;-77
2022/12/18 08:53:32;;;;;;;17.60;9.93;;;-5.80;99.90;;;;;;5076531;28;20134;-78
2022/12/18 08:55:57;;;;;;;15.57;8.17;;;-5.70;99.90;;;;;;5076591;28;20514;-78
2022/12/18 08:58:23;;;;;;;14.07;8.43;;;-5.60;99.90;;;;;;5075176;28;20171;-78
2022/12/18 09:00:49;;;;;;;14.20;8.33;;;-5.60;99.90;;;;;;5076381;28;20136;-78
2022/12/18 09:03:17;;;;;;;13.37;7.10;;;-5.50;99.90;;;;;;5075736;28;20399;-78
2022/12/18 09:05:42;;;;;;;11.73;8.35;;;-5.90;99.90;;;;;;5076222;28;20182;-78
2022/12/18 09:08:08;;;;;;;15.47;8.07;;;-5.80;99.90;;;;;;5076482;28;20153;-78
2022/12/18 09:10:40;;;;;;;16.03;8.43;;;-4.30;99.90;;;;;;5076375;28;20127;-78
2022/12/18 09:13:06;;;;;;;12.52;7.32;;;-5.20;99.90;;;;;;5076005;28;20473;-78
2022/12/18 09:15:31;;;;;;;9.83;6.80;;;-5.10;99.90;;;;;;5074904;28;20044;-78
2022/12/18 09:17:57;;;;;;;13.98;7.82;;;-4.80;99.90;;;;;;5076466;28;20072;-79
2022/12/18 09:20:22;;;;;;;14.97;8.03;;;-5.00;99.90;;;;;;5076416;28;20051;-79
2022/12/18 09:22:48;;;;;;;13.57;8.07;;;-4.90;99.90;;;;;;5074841;28;20115;-79
2022/12/18 09:25:14;;;;;;;14.03;7.43;;;-4.20;99.90;;;;;;5075921;28;20056;-79
2022/12/18 09:27:39;;;;;;;9.93;6.13;;;-4.10;99.90;;;;;;5075810;28;20057;-79
2022/12/18 09:30:06;;;;;;;11.53;7.43;;;-4.70;99.90;;;;;;5075774;28;20052;-78
2022/12/18 09:32:31;;;;;;;15.38;8.27;;;-4.60;99.90;;;;;;5075738;28;20056;-78
2022/12/18 09:34:57;;;;;;;15.13;8.02;;;-4.50;99.90;;;;;;5075830;28;20045;-79
2022/12/18 09:37:22;;;;;;;13.70;7.27;;;-4.50;99.90;;;;;;5076063;28;20464;-79
2022/12/18 09:39:48;;;;;;;13.10;8.47;;;-4.40;99.90;;;;;;5075744;28;20123;-78
2022/12/18 09:42:21;;;;;;;10.93;7.37;;;-4.30;99.90;;;;;;5075875;28;20047;-79
2022/12/18 09:44:51;;;;;;;13.25;7.65;;;-4.20;99.90;;;;;;5075588;28;20532;-79
2022/12/18 09:47:23;;;;;;;11.15;7.28;;;-4.20;99.90;;;;;;5076084;28;20044;-79
2022/12/18 09:49:59;;;;;;;12.32;7.78;;;-4.10;99.90;;;;;;5075908;28;20563;-78
2022/12/18 09:52:32;;;;;;;11.75;7.47;;;-4.10;99.90;;;;;;5075562;28;20097;-79
2022/12/18 09:55:05;;;;;;;11.75;7.82;;;-4.00;99.90;;;;;;5075640;28;20087;-79
2022/12/18 09:57:33;;;;;;;11.32;7.40;;;-3.90;99.90;;;;;;5075922;28;20396;-79
2022/12/18 10:00:14;;;;;;;11.82;6.70;;;-3.90;99.90;;;;;;5075364;28;20421;-79
2022/12/18 10:02:40;;;;;;;12.70;6.78;;;-3.80;99.90;;;;;;5075559;28;20040;-79
2022/12/18 10:05:11;;;;;;;11.90;6.65;;;-3.70;99.90;;;;;;5075418;28;20098;-78
2022/12/18 10:07:48;;;;;;;13.43;7.05;;;-3.60;99.90;;;;;;5074849;28;20503;-79
2022/12/18 10:10:37;;;;;;;13.32;7.10;;;-3.50;99.90;;;;;;5075137;28;20052;-79
2022/12/18 10:13:13;;;;;;;12.80;6.95;;;-3.50;99.90;;;;;;5075419;28;20063;-79
2022/12/18 10:16:08;;;;;;;8.30;7.00;;;-3.50;99.90;;;;;;5075440;28;20067;-79
2022/12/18 10:18:40;;;;;;;11.98;6.50;;;-3.40;99.90;;;;;;5075200;28;20053;-78
2022/12/18 10:21:12;;;;;;;8.57;6.50;;;-3.30;99.90;;;;;;5074770;28;20511;-79
2022/12/18 10:23:57;;;;;;;10.75;6.93;;;-3.30;99.90;;;;;;5074818;28;20052;-79
2022/12/18 10:26:22;;;;;;;10.55;6.90;;;-3.30;99.90;;;;;;5075022;28;20049;-79
2022/12/18 10:28:48;;;;;;;10.80;6.30;;;-1.70;99.90;;;;;;5074833;28;20045;-79
2022/12/18 10:31:21;;;;;;;10.82;7.05;;;-2.90;99.90;;;;;;5074769;28;20044;-79
2022/12/18 10:33:47;;;;;;;13.40;6.97;;;-3.80;99.90;;;;;;5074429;28;20060;-79
2022/12/18 10:36:13;;;;;;;10.38;6.25;;;-3.20;99.90;;;;;;5073867;28;20040;-79
2022/12/18 10:38:39;;;;;;;9.50;6.20;;;-3.20;99.90;;;;;;5074551;28;20486;-82
2022/12/18 10:41:25;;;;;;;12.38;6.93;;;-2.50;99.90;;;;;;5074309;28;20847;-80
2022/12/18 10:44:12;;;;;;;10.85;6.53;;;-1.60;99.90;;;;;;5074643;28;20381;-79
2022/12/18 10:46:38;;;;;;;12.20;6.72;;;-2.80;99.90;;;;;;5074556;28;20041;-78
2022/12/18 10:49:04;;;;;;;9.35;6.38;;;-3.10;99.90;;;;;;5074274;28;20369;-79
2022/12/18 10:51:33;;;;;;;14.05;6.90;;;-3.20;99.90;;;;;;5074252;28;20093;-78
2022/12/18 10:54:12;;;;;;;13.73;7.38;;;-3.00;99.90;;;;;;5073452;28;20067;-79
2022/12/18 10:56:38;;;;;;;10.10;6.55;;;-2.90;99.90;;;;;;5073068;28;20032;-79
2022/12/18 10:59:07;;;;;;;9.23;6.25;;;-3.10;99.90;;;;;;5074172;28;20502;-78
2022/12/18 11:01:54;;;;;;;11.48;6.70;;;-2.80;99.90;;;;;;5074096;28;20048;-78
2022/12/18 11:04:24;;;;;;;13.65;8.05;;;-2.70;99.90;;;;;;5074101;28;20499;-79
2022/12/18 11:06:54;;;;;;;10.55;7.35;;;-2.70;99.90;;;;;;5073886;28;20063;-77
2022/12/18 11:09:22;;;;;;;9.50;6.80;;;-2.60;99.90;;;;;;5074158;28;20051;-77
2022/12/18 11:12:00;;;;;;;12.77;6.75;;;-2.60;99.90;;;;;;5073822;28;20040;-78
2022/12/18 11:14:27;;;;;;;;;;;-1.70;99.90;;;;;;5074147;28;20527;-77
2022/12/18 11:16:55;;;;;;;13.65;7.43;;;-2.50;99.90;;;;;;5073465;28;19928;-78
2022/12/18 11:19:36;;;;;;;11.38;6.50;;;-2.70;99.90;;;;;;5073671;28;20052;-78
2022/12/18 11:22:27;;;;;;;11.85;7.32;;;-2.30;99.90;;;;;;5073784;28;20088;-78
2022/12/18 11:24:57;;;;;;;12.93;7.07;;;-2.30;99.90;;;;;;5073754;28;20127;-79
2022/12/18 11:27:23;;;;;;;12.32;6.85;;;-2.30;99.90;;;;;;5073607;28;20139;-78
2022/12/18 11:29:51;;;;;;;10.55;6.78;;;-2.20;99.90;;;;;;5073823;28;20127;-79
2022/12/18 11:32:40;;;;;;;9.85;6.32;;;-1.40;99.90;;;;;;5072460;28;20127;-77
2022/12/18 11:35:13;;;;;;;10.77;6.75;;;-2.20;99.90;;;;;;5073643;28;20545;-81
2022/12/18 11:37:43;;;;;;;12.98;7.90;;;-2.20;99.90;;;;;;5078829;28;20056;-76
2022/12/18 11:40:20;;;;;;;12.23;6.85;;;-2.20;99.90;;;;;;5073528;28;20126;-76
2022/12/18 11:42:59;;;;;;;10.18;6.88;;;-2.10;99.90;;;;;;5073579;28;20050;-76
2022/12/18 11:45:36;;;;;;;10.57;7.32;;;-2.00;99.90;;;;;;5072890;28;20041;-75
2022/12/18 11:48:20;;;;;;;10.63;7.65;;;-2.00;99.90;;;;;;5073316;28;20535;-78
2022/12/18 11:50:54;;;;;;;12.10;7.10;;;-1.90;99.90;;;;;;5073268;28;20485;-77
2022/12/18 11:53:20;;;;;;;14.15;7.40;;;-0.40;99.90;;;;;;5073222;28;20095;-78
2022/12/18 11:56:01;;;;;;;13.07;7.97;;;-1.90;99.90;;;;;;5073605;28;20102;-82
2022/12/18 11:58:39;;;;;;;11.77;7.60;;;-2.00;99.90;;;;;;5073263;28;20062;-76
2022/12/18 12:01:25;;;;;;;10.40;7.28;;;-1.90;99.90;;;;;;5072397;28;20084;-76
2022/12/18 12:04:08;;;;;;;11.25;6.47;;;-1.90;99.90;;;;;;5065864;28;20052;-78
2022/12/18 12:06:52;;;;;;;11.30;7.18;;;-1.80;99.90;;;;;;5073653;28;20395;-81
2022/12/18 12:09:44;;;;;;;9.82;6.47;;;-1.80;99.90;;;;;;5073524;28;20056;-76
2022/12/18 12:12:53;;;;;;;11.35;6.75;;;-1.80;99.90;;;;;;5073250;28;20052;-76
2022/12/18 12:15:37;;;;;;;10.27;6.97;;;-1.70;99.90;;;;;;5073158;28;20439;-76
2022/12/18 12:18:20;;;;;;;11.10;6.70;;;-1.70;99.90;;;;;;5073057;28;20459;-76
2022/12/18 12:20:45;;;;;;;9.50;6.60;;;-1.60;99.90;;;;;;5072911;28;20547;-75
2022/12/18 12:23:29;;;;;;;8.70;6.30;;;-1.60;99.90;;;;;;5072855;28;20091;-76
2022/12/18 12:26:18;;;;;;;10.70;6.32;;;-1.60;99.90;;;;;;5073070;28;20492;-76
2022/12/18 12:28:46;;;;;;;13.52;7.40;;;-1.60;99.90;;;;;;5073401;28;20045;-82
2022/12/18 12:31:23;;;;;;;11.20;6.85;;;-1.50;99.90;;;;;;5055525;28;20472;-74
2022/12/18 12:34:17;;;;;;;10.55;7.25;;;-1.50;99.90;;;;;;5073008;28;20063;-76
2022/12/18 12:37:16;;;;;;;12.48;7.38;;;-1.50;99.90;;;;;;5073209;28;20059;-76
2022/12/18 12:39:45;;;;;;;12.48;7.22;;;-1.40;99.90;;;;;;5073019;28;20044;-73
2022/12/18 12:45:14;;;;;;;;;;;-1.40;99.90;;;;;;5053259;28;20049;-77
2022/12/18 12:47:44;;;;;;;11.07;7.50;;;-0.80;99.90;;;;;;5052776;28;19973;-76
2022/12/18 12:50:19;;;;;;;13.02;7.38;;;-1.40;99.90;;;;;;5070317;28;20125;-76
2022/12/18 12:52:48;;;;;;;9.60;6.55;;;-1.40;99.90;;;;;;5068444;28;20186;-76
2022/12/18 12:55:27;;;;;;;10.55;6.60;;;-0.60;99.90;;;;;;5071292;28;20040;-76
2022/12/18 12:58:00;;;;;;;13.52;7.80;;;-1.20;99.90;;;;;;5073783;28;20032;-76
2022/12/18 13:00:31;;;;;;;12.73;7.60;;;-1.40;99.90;;;;;;5074708;28;20151;-76